Time;durP1;ratioP1;P1;durP2;ratioP2;P2;SDS_P1;SDS_P2;PMS_P1;PMS_P2;Temp;Humidity;BMP_temperature;BMP_pressure;BME280_temperature;BME280_humidity;BME280_pressure;Samples;Min_cycle;Max_cycle;Signal;HPM_P1;HPM_P2
2023/06/20 00:00:33;;;;;;;4.70;3.30;;;26.30;99.90;;;;;;5050014;28;20453;-60
2023/06/20 00:02:59;;;;;;;3.60;3.30;;;26.40;99.90;;;;;;5051229;28;20033;-60
2023/06/20 00:05:25;;;;;;;3.47;3.20;;;26.30;99.90;;;;;;5051741;28;20383;-60
2023/06/20 00:07:50;;;;;;;4.10;3.75;;;26.30;99.90;;;;;;5051261;28;20041;-60
2023/06/20 00:10:16;;;;;;;5.90;3.80;;;26.20;99.90;;;;;;5051765;28;20017;-60
2023/06/20 00:12:41;;;;;;;4.20;3.55;;;26.20;99.90;;;;;;5050986;28;20029;-60
2023/06/20 00:15:07;;;;;;;3.88;3.45;;;26.30;99.90;;;;;;5051491;28;20104;-60
2023/06/20 00:17:33;;;;;;;3.72;3.42;;;26.20;99.90;;;;;;5056754;28;20070;-60
2023/06/20 00:19:59;;;;;;;5.78;4.05;;;26.30;99.90;;;;;;5054661;28;20056;-60
2023/06/20 00:22:24;;;;;;;4.72;3.53;;;26.30;99.90;;;;;;5054665;28;20418;-59
2023/06/20 00:24:50;;;;;;;5.05;3.80;;;26.50;99.90;;;;;;5054700;28;20107;-60
2023/06/20 00:27:16;;;;;;;4.40;4.00;;;26.40;99.90;;;;;;5056689;28;20037;-60
2023/06/20 00:29:44;;;;;;;6.78;4.07;;;26.50;99.90;;;;;;5056045;28;20025;-60
2023/06/20 00:32:09;;;;;;;4.85;3.92;;;26.30;99.90;;;;;;5045859;28;20071;-60
2023/06/20 00:34:35;;;;;;;4.18;3.70;;;26.30;99.90;;;;;;5054425;28;20437;-59
2023/06/20 00:37:01;;;;;;;3.95;3.65;;;26.40;99.90;;;;;;5056439;28;20024;-60
2023/06/20 00:39:26;;;;;;;3.97;3.67;;;26.20;99.90;;;;;;5054934;28;20029;-60
2023/06/20 00:41:52;;;;;;;4.70;3.97;;;26.40;99.90;;;;;;5053441;28;20045;-60
2023/06/20 00:44:18;;;;;;;5.82;3.80;;;26.40;99.90;;;;;;5053110;28;20028;-60
2023/06/20 00:46:43;;;;;;;4.38;3.97;;;26.50;99.90;;;;;;5053021;28;20044;-59
2023/06/20 00:49:10;;;;;;;3.95;3.65;;;26.50;99.90;;;;;;5054931;28;20029;-60
2023/06/20 00:51:37;;;;;;;4.20;3.80;;;26.40;99.90;;;;;;5052811;28;20025;-60
2023/06/20 00:54:03;;;;;;;4.38;3.97;;;26.30;99.90;;;;;;5036856;28;20486;-59
2023/06/20 00:56:29;;;;;;;4.60;3.35;;;26.40;99.90;;;;;;5048334;28;20028;-59
2023/06/20 00:58:55;;;;;;;4.00;3.60;;;26.40;99.90;;;;;;5044988;28;20084;-60
2023/06/20 01:01:21;;;;;;;3.85;3.17;;;26.40;99.90;;;;;;5052847;28;20028;-59
2023/06/20 01:03:50;;;;;;;4.45;3.63;;;26.20;99.90;;;;;;5056246;28;20430;-60
2023/06/20 01:06:34;;;;;;;5.10;3.60;;;26.20;99.90;;;;;;5053662;28;20517;-60
2023/06/20 01:09:09;;;;;;;3.97;3.67;;;26.20;99.90;;;;;;5053912;28;20032;-60
2023/06/20 01:11:57;;;;;;;5.88;3.90;;;26.30;99.90;;;;;;5036024;28;20395;-60
2023/06/20 01:14:28;;;;;;;3.90;3.53;;;26.30;99.90;;;;;;5035628;28;20049;-60
2023/06/20 01:17:03;;;;;;;5.38;3.80;;;26.50;99.90;;;;;;5034901;28;20030;-59
2023/06/20 01:20:09;;;;;;;3.78;3.47;;;26.40;99.90;;;;;;5054403;28;20083;-60
2023/06/20 01:22:46;;;;;;;4.28;3.88;;;26.30;99.90;;;;;;5033922;28;20049;-59
2023/06/20 01:25:28;;;;;;;4.10;3.80;;;26.30;99.90;;;;;;5036412;28;20056;-60
2023/06/20 01:28:16;;;;;;;4.50;4.05;;;26.60;99.90;;;;;;5049976;28;20033;-59
2023/06/20 01:30:48;;;;;;;7.18;3.90;;;26.60;99.90;;;;;;5050883;28;20032;-59
2023/06/20 01:33:19;;;;;;;5.65;4.28;;;26.40;99.90;;;;;;5052044;28;20486;-59
2023/06/20 01:35:47;;;;;;;3.90;3.60;;;26.40;99.90;;;;;;5051799;28;20021;-60
2023/06/20 01:38:15;;;;;;;4.68;4.28;;;26.40;99.90;;;;;;5054281;28;20032;-60
2023/06/20 01:40:44;;;;;;;6.57;4.05;;;26.50;99.90;;;;;;5043723;28;20064;-60
2023/06/20 01:43:13;;;;;;;4.88;3.88;;;26.50;99.90;;;;;;5034342;28;20091;-60
2023/06/20 01:45:42;;;;;;;4.82;3.90;;;26.30;99.90;;;;;;5041334;28;20021;-60
2023/06/20 01:48:09;;;;;;;4.38;3.97;;;26.20;99.90;;;;;;5052367;28;20044;-60
2023/06/20 01:50:37;;;;;;;4.78;3.95;;;26.20;99.90;;;;;;5050933;28;20070;-60
2023/06/20 01:53:04;;;;;;;4.28;3.92;;;26.10;99.90;;;;;;5052658;28;20398;-60
2023/06/20 01:55:32;;;;;;;4.07;3.47;;;26.20;99.90;;;;;;5050972;28;20025;-60
2023/06/20 01:57:59;;;;;;;5.05;3.80;;;26.20;99.90;;;;;;5052436;28;20078;-60
2023/06/20 02:00:27;;;;;;;3.67;3.40;;;26.20;99.90;;;;;;5052083;28;20044;-60
2023/06/20 02:02:58;;;;;;;3.45;3.17;;;26.10;99.90;;;;;;5051347;28;20040;-60
2023/06/20 02:05:30;;;;;;;4.60;4.20;;;26.20;99.90;;;;;;5054572;28;20031;-60
2023/06/20 02:07:57;;;;;;;6.13;3.78;;;26.10;99.90;;;;;;5052557;28;20048;-60
2023/06/20 02:10:57;;;;;;;3.75;3.35;;;26.20;99.90;;;;;;5052080;28;20029;-60
2023/06/20 02:13:24;;;;;;;4.18;3.83;;;26.20;99.90;;;;;;5053153;28;20044;-60
2023/06/20 02:15:52;;;;;;;5.10;3.60;;;26.20;99.90;;;;;;5054875;28;20037;-60
2023/06/20 02:18:19;;;;;;;4.10;3.72;;;26.20;99.90;;;;;;5052427;28;20048;-60
2023/06/20 02:20:50;;;;;;;5.20;4.13;;;26.00;99.90;;;;;;5054710;28;20406;-60
2023/06/20 02:23:28;;;;;;;3.83;3.53;;;26.00;99.90;;;;;;5053564;28;20036;-60
2023/06/20 02:26:07;;;;;;;4.45;3.83;;;26.00;99.90;;;;;;5054210;28;20136;-60
2023/06/20 02:28:33;;;;;;;5.78;4.05;;;26.10;99.90;;;;;;5052301;28;20044;-60
2023/06/20 02:31:00;;;;;;;4.55;3.80;;;26.00;99.90;;;;;;5054374;28;20371;-60
2023/06/20 02:33:32;;;;;;;4.95;3.63;;;26.10;99.90;;;;;;5052328;28;20036;-60
2023/06/20 02:36:00;;;;;;;4.20;3.80;;;26.10;99.90;;;;;;5054452;28;20032;-60
2023/06/20 02:38:25;;;;;;;4.40;3.83;;;26.00;99.90;;;;;;5049604;28;20029;-60
2023/06/20 02:40:51;;;;;;;5.10;4.05;;;25.90;99.90;;;;;;5052069;28;20444;-60
2023/06/20 02:43:17;;;;;;;3.78;3.40;;;26.00;99.90;;;;;;5052744;28;20103;-60
2023/06/20 02:45:46;;;;;;;4.00;3.60;;;26.00;99.90;;;;;;5053962;28;20100;-60
2023/06/20 02:48:29;;;;;;;4.60;3.95;;;25.90;99.90;;;;;;5052378;28;20186;-60
2023/06/20 02:50:58;;;;;;;4.10;3.80;;;26.10;99.90;;;;;;5052114;28;20108;-60
2023/06/20 02:53:33;;;;;;;4.90;3.78;;;26.00;99.90;;;;;;5054044;28;20064;-60
2023/06/20 02:56:06;;;;;;;4.53;3.90;;;26.20;99.90;;;;;;5053153;28;20025;-60
2023/06/20 02:58:35;;;;;;;5.07;4.00;;;26.10;99.90;;;;;;5051350;28;20078;-60
2023/06/20 03:01:02;;;;;;;4.50;3.92;;;25.90;99.90;;;;;;5051546;28;20033;-60
2023/06/20 03:03:36;;;;;;;4.68;4.25;;;25.80;99.90;;;;;;5051838;28;20028;-60
2023/06/20 03:06:06;;;;;;;4.60;4.20;;;25.80;99.90;;;;;;5053964;28;20413;-60
2023/06/20 03:08:32;;;;;;;5.47;4.18;;;25.80;99.90;;;;;;5052725;28;20032;-60
2023/06/20 03:11:00;;;;;;;5.32;4.50;;;25.80;99.90;;;;;;5051848;28;20029;-60
2023/06/20 03:13:27;;;;;;;6.80;4.70;;;25.80;99.90;;;;;;5053805;28;20068;-60
2023/06/20 03:15:54;;;;;;;6.82;5.05;;;25.90;99.90;;;;;;5052347;28;20128;-60
2023/06/20 03:18:20;;;;;;;6.03;4.88;;;25.70;99.90;;;;;;5051879;28;20021;-60
2023/06/20 03:20:47;;;;;;;6.80;4.78;;;25.70;99.90;;;;;;5053398;28;20043;-60
2023/06/20 03:23:13;;;;;;;4.55;4.20;;;25.70;99.90;;;;;;5045115;28;20021;-60
2023/06/20 03:25:40;;;;;;;5.82;4.88;;;25.70;99.90;;;;;;5051502;28;20044;-60
2023/06/20 03:28:05;;;;;;;6.35;4.40;;;25.70;99.90;;;;;;5053760;28;20041;-60
2023/06/20 03:30:31;;;;;;;8.98;5.00;;;25.70;99.90;;;;;;5052826;28;20021;-60
2023/06/20 03:32:56;;;;;;;5.90;4.65;;;25.80;99.90;;;;;;5051867;28;20178;-60
2023/06/20 03:35:22;;;;;;;7.13;5.00;;;25.80;99.90;;;;;;5052229;28;20032;-60
2023/06/20 03:37:48;;;;;;;5.45;4.95;;;25.60;99.90;;;;;;5047250;28;20029;-60
2023/06/20 03:40:14;;;;;;;5.63;4.95;;;25.50;99.90;;;;;;5033442;28;20033;-60
2023/06/20 03:42:40;;;;;;;5.65;4.63;;;25.50;99.90;;;;;;5051146;28;20391;-60
2023/06/20 03:45:07;;;;;;;5.93;5.07;;;25.60;99.90;;;;;;5053240;28;20029;-60
2023/06/20 03:47:33;;;;;;;7.05;5.10;;;25.50;99.90;;;;;;5051349;28;20053;-60
2023/06/20 03:49:58;;;;;;;6.70;5.00;;;25.50;99.90;;;;;;5052589;28;20021;-60
2023/06/20 03:52:24;;;;;;;6.30;5.30;;;25.50;99.90;;;;;;5050854;28;20079;-60
2023/06/20 03:54:50;;;;;;;5.53;5.05;;;25.60;99.90;;;;;;5034766;28;20435;-61
2023/06/20 03:57:15;;;;;;;6.70;4.60;;;25.50;99.90;;;;;;5041043;28;20021;-61
2023/06/20 03:59:41;;;;;;;5.30;4.85;;;25.40;99.90;;;;;;5053021;28;20025;-58
2023/06/20 04:02:07;;;;;;;5.72;4.85;;;25.40;99.90;;;;;;5050173;28;20120;-60
2023/06/20 04:04:33;;;;;;;6.82;5.22;;;25.30;99.90;;;;;;5052836;28;20037;-60
2023/06/20 04:06:58;;;;;;;6.05;5.05;;;25.40;99.90;;;;;;5050415;28;20033;-60
2023/06/20 04:09:26;;;;;;;7.28;5.65;;;25.40;99.90;;;;;;5051821;28;20382;-61
2023/06/20 04:11:53;;;;;;;9.52;5.22;;;25.50;99.90;;;;;;5052753;28;20491;-60
2023/06/20 04:14:18;;;;;;;6.03;4.68;;;25.50;99.90;;;;;;5052634;28;20033;-60
2023/06/20 04:16:44;;;;;;;5.70;5.15;;;25.50;99.90;;;;;;5052079;28;20037;-60
2023/06/20 04:19:10;;;;;;;5.72;4.95;;;25.50;99.90;;;;;;5052052;28;20071;-60
2023/06/20 04:21:36;;;;;;;5.55;4.97;;;25.60;99.90;;;;;;5048078;28;20025;-60
2023/06/20 04:24:01;;;;;;;8.60;4.88;;;25.60;99.90;;;;;;5052487;28;20033;-59
2023/06/20 04:26:30;;;;;;;6.68;4.85;;;25.40;99.90;;;;;;5052670;28;20387;-60
2023/06/20 04:28:58;;;;;;;5.57;5.07;;;25.50;99.90;;;;;;5051610;28;20499;-60
2023/06/20 04:31:24;;;;;;;8.90;5.05;;;25.50;99.90;;;;;;5050688;28;20037;-59
2023/06/20 04:33:50;;;;;;;5.63;4.72;;;25.60;99.90;;;;;;5050770;28;20555;-59
2023/06/20 04:36:16;;;;;;;6.50;5.00;;;25.60;99.90;;;;;;5049891;28;20399;-60
2023/06/20 04:38:42;;;;;;;6.90;5.10;;;25.70;99.90;;;;;;5052936;28;20022;-60
2023/06/20 04:41:09;;;;;;;5.60;5.03;;;25.60;99.90;;;;;;5050561;28;20029;-60
2023/06/20 04:43:35;;;;;;;5.80;4.90;;;25.60;99.90;;;;;;5052783;28;20067;-60
2023/06/20 04:46:01;;;;;;;5.18;4.68;;;25.60;99.90;;;;;;5050486;28;20431;-60
2023/06/20 04:48:35;;;;;;;5.07;4.63;;;25.70;99.90;;;;;;5052428;28;20439;-60
2023/06/20 04:51:01;;;;;;;5.75;5.05;;;25.60;99.90;;;;;;5050374;28;20071;-61
2023/06/20 04:53:27;;;;;;;7.30;4.47;;;25.60;99.90;;;;;;5051425;28;20033;-61
2023/06/20 04:55:53;;;;;;;5.72;4.57;;;25.70;99.90;;;;;;5052613;28;20033;-60
2023/06/20 04:58:19;;;;;;;7.43;4.90;;;25.70;99.90;;;;;;5051396;28;20514;-60
2023/06/20 05:00:45;;;;;;;8.93;5.10;;;25.80;99.90;;;;;;5050218;28;20111;-60
2023/06/20 05:03:10;;;;;;;5.90;4.47;;;25.90;99.90;;;;;;5053194;28;20363;-60
2023/06/20 05:05:36;;;;;;;5.97;5.03;;;25.90;99.90;;;;;;5053309;28;20032;-60
2023/06/20 05:08:02;;;;;;;6.10;4.90;;;25.90;99.90;;;;;;5056093;28;20470;-60
2023/06/20 05:10:27;;;;;;;7.78;5.18;;;25.90;99.90;;;;;;5054299;28;20478;-60
2023/06/20 05:12:53;;;;;;;6.05;5.25;;;26.00;99.90;;;;;;5056059;28;20036;-60
2023/06/20 05:15:23;;;;;;;5.32;4.65;;;26.00;99.90;;;;;;5054398;28;20457;-60
2023/06/20 05:17:52;;;;;;;7.00;5.07;;;26.00;99.90;;;;;;5053821;28;20020;-61
2023/06/20 05:20:19;;;;;;;6.43;5.10;;;26.10;99.90;;;;;;5051937;28;20021;-60
2023/06/20 05:22:45;;;;;;;7.97;5.78;;;26.20;99.90;;;;;;5055909;28;20049;-61
2023/06/20 05:25:11;;;;;;;7.75;5.63;;;26.10;99.90;;;;;;5051115;28;20068;-60
2023/06/20 05:27:37;;;;;;;7.50;6.18;;;26.20;99.90;;;;;;5055704;28;20040;-61
2023/06/20 05:30:03;;;;;;;9.93;8.38;;;26.00;99.90;;;;;;5054702;28;20181;-60
2023/06/20 05:32:28;;;;;;;8.35;5.53;;;26.10;99.90;;;;;;5052658;28;20045;-59
2023/06/20 05:34:54;;;;;;;5.88;5.03;;;26.00;99.90;;;;;;5055660;28;20033;-59
2023/06/20 05:37:20;;;;;;;8.77;5.70;;;26.20;99.90;;;;;;5053045;28;20037;-59
2023/06/20 05:39:45;;;;;;;6.80;5.07;;;26.10;99.90;;;;;;5054502;28;20463;-59
2023/06/20 05:42:11;;;;;;;5.68;4.40;;;26.10;99.90;;;;;;5055271;28;20360;-59
2023/06/20 05:44:37;;;;;;;10.20;6.18;;;26.20;99.90;;;;;;5054547;28;20029;-59
2023/06/20 05:47:04;;;;;;;5.63;5.03;;;26.20;99.90;;;;;;5051145;28;20033;-59
2023/06/20 05:49:30;;;;;;;4.45;4.15;;;26.20;99.90;;;;;;5055189;28;20028;-60
2023/06/20 05:51:57;;;;;;;7.32;4.75;;;26.10;99.90;;;;;;5053359;28;20422;-61
2023/06/20 05:54:26;;;;;;;8.32;5.20;;;26.20;99.90;;;;;;5055267;28;20589;-60
2023/06/20 05:56:52;;;;;;;5.60;4.90;;;26.30;99.90;;;;;;5052905;28;20083;-59
2023/06/20 05:59:18;;;;;;;5.38;4.63;;;26.30;99.90;;;;;;5055323;28;20036;-59
2023/06/20 06:01:44;;;;;;;5.50;4.40;;;26.40;99.90;;;;;;5053212;28;20025;-58
2023/06/20 06:04:10;;;;;;;4.88;4.47;;;26.40;99.90;;;;;;5055052;28;20443;-59
2023/06/20 06:06:36;;;;;;;5.65;4.72;;;26.30;99.90;;;;;;5050197;28;20425;-59
2023/06/20 06:09:03;;;;;;;5.13;4.70;;;26.40;99.90;;;;;;5054771;28;20035;-59
2023/06/20 06:11:29;;;;;;;5.38;4.05;;;26.40;99.90;;;;;;5049689;28;20430;-59
2023/06/20 06:13:55;;;;;;;7.63;4.28;;;26.50;99.90;;;;;;5054786;28;20025;-59
2023/06/20 06:16:21;;;;;;;6.43;4.70;;;26.60;99.90;;;;;;5052323;28;20116;-61
2023/06/20 06:18:47;;;;;;;7.57;4.50;;;26.60;99.90;;;;;;5052374;28;20032;-62
2023/06/20 06:21:12;;;;;;;4.78;4.38;;;26.50;99.90;;;;;;5050316;28;20033;-62
2023/06/20 06:23:38;;;;;;;6.35;4.45;;;26.60;99.90;;;;;;5052698;28;20036;-62
2023/06/20 06:26:04;;;;;;;5.30;4.43;;;26.60;99.90;;;;;;5054287;28;20128;-63
2023/06/20 06:28:30;;;;;;;4.55;4.15;;;26.70;99.90;;;;;;5051782;28;20483;-63
2023/06/20 06:30:59;;;;;;;4.57;4.18;;;26.60;99.90;;;;;;5054680;28;20025;-63
2023/06/20 06:33:25;;;;;;;6.30;4.55;;;26.60;99.90;;;;;;5052658;28;20025;-63
2023/06/20 06:35:51;;;;;;;6.38;4.50;;;26.60;99.90;;;;;;5051129;28;20025;-63
2023/06/20 06:38:17;;;;;;;5.07;4.53;;;26.70;99.90;;;;;;5054736;28;20107;-63
2023/06/20 06:40:45;;;;;;;6.18;4.90;;;26.70;99.90;;;;;;5054471;28;20500;-63
2023/06/20 06:43:11;;;;;;;5.07;4.57;;;26.80;99.90;;;;;;5052115;28;20116;-63
2023/06/20 06:45:37;;;;;;;6.35;4.22;;;26.80;99.90;;;;;;5052146;28;20120;-63
2023/06/20 06:48:03;;;;;;;6.22;4.15;;;26.80;99.90;;;;;;5049584;28;20033;-63
2023/06/20 06:50:28;;;;;;;5.38;4.25;;;26.90;99.90;;;;;;5054279;28;20028;-63
2023/06/20 06:52:54;;;;;;;4.63;4.22;;;26.80;99.90;;;;;;5045464;28;20021;-63
2023/06/20 06:55:20;;;;;;;6.65;4.13;;;26.90;99.90;;;;;;5053194;28;20040;-64
2023/06/20 06:57:45;;;;;;;4.72;4.05;;;27.00;99.90;;;;;;5051760;28;20021;-64
2023/06/20 07:00:14;;;;;;;6.03;4.20;;;27.00;99.90;;;;;;5052563;28;20493;-63
2023/06/20 07:02:44;;;;;;;7.53;4.90;;;27.10;99.90;;;;;;5050935;28;20489;-63
2023/06/20 07:05:10;;;;;;;6.03;4.63;;;27.10;99.90;;;;;;5053694;28;20367;-64
2023/06/20 07:07:36;;;;;;;9.23;5.47;;;27.10;99.90;;;;;;5049603;28;20040;-61
2023/06/20 07:10:02;;;;;;;8.65;5.18;;;27.10;99.90;;;;;;5051478;28;20017;-63
2023/06/20 07:12:27;;;;;;;6.90;4.85;;;27.20;99.90;;;;;;5052432;28;20455;-63
2023/06/20 07:14:56;;;;;;;7.30;5.35;;;27.10;99.90;;;;;;5051728;28;20087;-63
2023/06/20 07:17:25;;;;;;;7.43;5.13;;;27.20;99.90;;;;;;5051487;28;20021;-62
2023/06/20 07:19:54;;;;;;;7.88;5.50;;;27.20;99.90;;;;;;5042801;28;20041;-61
2023/06/20 07:22:20;;;;;;;7.20;5.10;;;27.20;99.90;;;;;;5049661;28;20043;-61
2023/06/20 07:24:46;;;;;;;6.53;4.53;;;27.30;99.90;;;;;;5050410;28;20041;-61
2023/06/20 07:27:11;;;;;;;8.38;5.28;;;27.30;99.90;;;;;;5053376;28;20120;-61
2023/06/20 07:29:37;;;;;;;7.93;5.00;;;27.40;99.90;;;;;;5048865;28;20022;-62
2023/06/20 07:32:03;;;;;;;7.88;4.65;;;27.40;99.90;;;;;;5053212;28;20028;-61
2023/06/20 07:34:29;;;;;;;7.90;4.90;;;27.50;99.90;;;;;;5053207;28;20057;-61
2023/06/20 07:36:55;;;;;;;10.05;5.22;;;27.50;99.90;;;;;;5052284;28;20025;-62
2023/06/20 07:39:21;;;;;;;9.20;5.22;;;27.60;99.90;;;;;;5053265;28;20033;-61
2023/06/20 07:41:47;;;;;;;5.95;4.60;;;27.70;99.90;;;;;;5050887;28;20079;-61
2023/06/20 07:44:12;;;;;;;6.68;4.63;;;27.80;99.90;;;;;;5048083;28;20041;-62
2023/06/20 07:46:39;;;;;;;8.52;5.03;;;28.00;99.90;;;;;;5052134;28;20053;-61
2023/06/20 07:49:05;;;;;;;6.30;4.45;;;28.30;99.90;;;;;;5054731;28;20451;-61
2023/06/20 07:51:33;;;;;;;7.97;5.07;;;28.30;99.90;;;;;;5057840;28;20040;-62
2023/06/20 07:54:01;;;;;;;7.65;4.85;;;28.50;99.90;;;;;;5056557;28;20491;-61
2023/06/20 07:56:27;;;;;;;6.22;5.05;;;28.80;99.90;;;;;;5052750;28;20024;-61
2023/06/20 07:58:53;;;;;;;7.93;5.55;;;28.50;99.90;;;;;;5052937;28;20529;-61
2023/06/20 08:01:18;;;;;;;5.45;4.95;;;28.50;99.90;;;;;;5054449;28;20017;-62
2023/06/20 08:03:44;;;;;;;8.63;5.40;;;28.50;99.90;;;;;;5054695;28;20028;-61
2023/06/20 08:06:10;;;;;;;6.95;5.03;;;28.50;99.90;;;;;;5049110;28;20040;-62
2023/06/20 08:08:37;;;;;;;6.68;5.20;;;28.40;99.90;;;;;;5052373;28;20569;-62
2023/06/20 08:11:03;;;;;;;6.90;4.80;;;28.30;99.90;;;;;;5051442;28;20013;-61
2023/06/20 08:13:29;;;;;;;6.95;4.72;;;28.30;99.90;;;;;;5047936;28;20079;-62
2023/06/20 08:15:55;;;;;;;5.55;4.43;;;28.40;99.90;;;;;;5043108;28;20014;-62
2023/06/20 08:18:21;;;;;;;5.32;4.47;;;28.40;99.90;;;;;;5032924;28;20541;-62
2023/06/20 08:20:47;;;;;;;5.60;4.25;;;28.40;99.90;;;;;;5039481;28;20045;-62
2023/06/20 08:23:13;;;;;;;6.45;5.35;;;28.50;99.90;;;;;;5052839;28;20037;-62
2023/06/20 08:25:39;;;;;;;5.45;4.95;;;28.60;99.90;;;;;;5049518;28;20548;-61
2023/06/20 08:28:05;;;;;;;6.10;4.57;;;28.60;99.90;;;;;;5052706;28;20069;-62
2023/06/20 08:30:30;;;;;;;4.47;4.15;;;28.70;99.90;;;;;;5040095;28;20052;-61
2023/06/20 08:32:56;;;;;;;5.95;4.28;;;28.60;99.90;;;;;;5043207;28;20080;-61
2023/06/20 08:35:22;;;;;;;6.20;5.53;;;28.60;99.90;;;;;;5052593;28;20036;-61
2023/06/20 08:37:48;;;;;;;5.82;5.00;;;28.70;99.90;;;;;;5054062;28;20033;-61
2023/06/20 08:40:14;;;;;;;7.53;4.80;;;28.60;99.90;;;;;;5055469;28;20028;-61
2023/06/20 08:42:46;;;;;;;5.38;4.88;;;28.70;99.90;;;;;;5050835;28;20208;-61
2023/06/20 08:45:12;;;;;;;8.70;4.82;;;28.80;99.90;;;;;;5043507;28;20116;-61
2023/06/20 08:47:38;;;;;;;6.20;5.38;;;28.80;99.90;;;;;;5056508;28;20128;-61
2023/06/20 08:50:04;;;;;;;5.80;5.15;;;28.80;99.90;;;;;;5053665;28;20028;-61
2023/06/20 08:52:31;;;;;;;7.80;5.43;;;28.80;99.90;;;;;;5055969;28;20029;-61
2023/06/20 08:54:57;;;;;;;8.20;5.00;;;28.80;99.90;;;;;;5055224;28;20040;-61
2023/06/20 08:57:23;;;;;;;8.52;5.72;;;28.80;99.90;;;;;;5054205;28;20020;-61
2023/06/20 08:59:49;;;;;;;5.72;5.20;;;28.90;99.90;;;;;;5056089;28;20071;-61
2023/06/20 09:02:16;;;;;;;8.85;5.20;;;28.90;99.90;;;;;;5054005;28;20074;-61
2023/06/20 09:04:42;;;;;;;8.68;5.03;;;28.80;99.90;;;;;;5055148;28;20467;-61
2023/06/20 09:07:18;;;;;;;5.95;5.38;;;28.90;99.90;;;;;;5054809;28;20040;-61
2023/06/20 09:09:44;;;;;;;7.80;5.50;;;28.80;99.90;;;;;;5054432;28;20029;-61
2023/06/20 09:12:10;;;;;;;11.13;6.30;;;28.80;99.90;;;;;;5055883;28;20036;-61
2023/06/20 09:14:36;;;;;;;6.00;5.50;;;28.80;99.90;;;;;;5051442;28;20021;-61
2023/06/20 09:17:03;;;;;;;5.82;5.38;;;29.00;99.90;;;;;;5056004;28;20029;-62
2023/06/20 09:19:43;;;;;;;7.15;5.72;;;29.10;99.90;;;;;;5051889;28;20530;-62
2023/06/20 09:22:16;;;;;;;6.28;5.68;;;29.00;99.90;;;;;;5055654;28;20071;-61
2023/06/20 09:24:44;;;;;;;6.45;5.88;;;29.10;99.90;;;;;;5054412;28;20064;-61
2023/06/20 09:27:10;;;;;;;7.20;5.95;;;29.20;99.90;;;;;;5053635;28;20064;-61
2023/06/20 09:29:52;;;;;;;9.20;6.07;;;29.40;99.90;;;;;;5053050;28;20605;-61
2023/06/20 09:32:20;;;;;;;6.18;5.45;;;29.70;99.90;;;;;;5040714;28;20161;-62
2023/06/20 09:34:46;;;;;;;6.18;5.18;;;29.80;99.90;;;;;;5053796;28;20052;-61
2023/06/20 09:37:17;;;;;;;6.97;5.90;;;30.00;99.90;;;;;;5054175;28;20543;-61
2023/06/20 09:39:44;;;;;;;6.45;5.85;;;30.00;99.90;;;;;;5047988;28;20127;-60
2023/06/20 09:42:13;;;;;;;7.28;6.55;;;29.80;99.90;;;;;;5054351;28;20033;-60
2023/06/20 09:48:03;;;;;;;7.53;6.15;;;29.80;99.90;;;;;;5035538;28;20566;-61
2023/06/20 09:50:31;;;;;;;6.47;5.88;;;30.00;99.90;;;;;;5049361;28;20427;-61
2023/06/20 09:53:37;;;;;;;7.40;6.57;;;30.30;99.90;;;;;;5055324;28;20029;-61
2023/06/20 09:56:05;;;;;;;8.27;6.05;;;30.20;99.90;;;;;;5043231;28;20116;-61
2023/06/20 09:58:33;;;;;;;6.05;5.55;;;30.10;99.90;;;;;;5055006;28;20107;-61
2023/06/20 10:01:00;;;;;;;6.63;5.95;;;30.20;99.90;;;;;;5052357;28;20036;-61
2023/06/20 10:03:27;;;;;;;6.25;5.65;;;30.50;99.90;;;;;;5042765;28;20022;-61
2023/06/20 10:05:53;;;;;;;6.78;5.85;;;30.30;99.90;;;;;;5048491;28;20036;-62
2023/06/20 10:08:19;;;;;;;6.63;5.93;;;30.40;99.90;;;;;;5055100;28;20120;-61
2023/06/20 10:10:44;;;;;;;7.72;5.97;;;30.00;99.90;;;;;;5055378;28;20092;-62
2023/06/20 10:13:11;;;;;;;7.40;6.05;;;30.30;99.90;;;;;;5056512;28;20036;-61
2023/06/20 10:15:37;;;;;;;7.88;6.22;;;31.00;99.90;;;;;;5056948;28;20066;-61
2023/06/20 10:18:03;;;;;;;6.15;5.55;;;31.20;99.90;;;;;;5056222;28;20025;-61
2023/06/20 10:20:33;;;;;;;8.90;5.45;;;30.80;99.90;;;;;;5049120;28;20090;-61
2023/06/20 10:23:04;;;;;;;6.15;5.47;;;30.50;99.90;;;;;;5054699;28;20466;-61
2023/06/20 10:25:31;;;;;;;7.35;6.00;;;30.70;99.90;;;;;;5055058;28;20127;-61
2023/06/20 10:28:01;;;;;;;6.25;5.38;;;31.00;99.90;;;;;;5055703;28;20486;-61
2023/06/20 10:33:14;;;;;;;6.75;5.30;;;31.10;99.90;;;;;;5056068;28;20033;-61
2023/06/20 10:35:58;;;;;;;6.13;5.65;;;31.10;99.90;;;;;;5053792;28;20470;-61
2023/06/20 10:38:25;;;;;;;5.53;5.13;;;31.10;99.90;;;;;;5054973;28;20076;-61
2023/06/20 10:41:13;;;;;;;6.13;5.40;;;31.20;99.90;;;;;;5053681;28;20494;-61
2023/06/20 10:43:58;;;;;;;6.10;5.60;;;31.10;99.90;;;;;;5054287;28;20378;-61
2023/06/20 10:46:46;;;;;;;6.88;5.32;;;31.30;99.90;;;;;;5056115;28;20083;-61
2023/06/20 10:49:12;;;;;;;6.05;4.93;;;31.20;99.90;;;;;;5053290;28;20482;-61
2023/06/20 10:51:51;;;;;;;5.65;5.15;;;30.80;99.90;;;;;;5053729;28;20036;-61
2023/06/20 10:54:17;;;;;;;5.97;5.43;;;31.10;99.90;;;;;;5055142;28;20039;-61
2023/06/20 10:56:43;;;;;;;5.75;5.18;;;31.20;99.90;;;;;;5055069;28;20039;-62
2023/06/20 10:59:15;;;;;;;7.22;5.43;;;31.20;99.90;;;;;;5054115;28;20391;-61
2023/06/20 11:01:41;;;;;;;5.93;4.75;;;31.50;99.90;;;;;;5054980;28;20104;-62
2023/06/20 11:04:11;;;;;;;6.32;5.38;;;31.40;99.90;;;;;;5056572;28;20489;-62
2023/06/20 11:06:38;;;;;;;6.03;5.40;;;31.60;99.90;;;;;;5054403;28;20374;-62
2023/06/20 11:09:04;;;;;;;7.38;5.68;;;31.50;99.90;;;;;;5049831;28;20142;-62
2023/06/20 11:11:34;;;;;;;6.00;5.38;;;31.80;99.90;;;;;;5054281;28;20032;-62
2023/06/20 11:14:09;;;;;;;5.65;5.15;;;31.90;99.90;;;;;;5054832;28;20516;-62
2023/06/20 11:16:35;;;;;;;6.88;6.28;;;31.80;99.90;;;;;;5054211;28;20023;-62
2023/06/20 11:19:01;;;;;;;10.52;9.23;;;32.30;99.90;;;;;;5056404;28;20025;-62
2023/06/20 11:21:27;;;;;;;8.80;7.25;;;34.00;99.90;;;;;;5056671;28;20040;-62
2023/06/20 11:24:00;;;;;;;6.38;5.75;;;35.50;99.90;;;;;;5052336;28;20131;-61
2023/06/20 11:26:29;;;;;;;7.15;6.03;;;35.80;99.90;;;;;;5054830;28;20101;-61
2023/06/20 11:29:03;;;;;;;6.60;5.82;;;35.40;99.90;;;;;;5054630;28;20044;-62
2023/06/20 11:31:30;;;;;;;6.68;6.10;;;35.00;99.90;;;;;;5052149;28;20401;-61
2023/06/20 11:34:09;;;;;;;5.90;5.40;;;34.80;99.90;;;;;;5055841;28;20033;-60
2023/06/20 11:36:38;;;;;;;6.90;5.57;;;34.60;99.90;;;;;;5050122;28;20036;-61
2023/06/20 11:39:09;;;;;;;6.43;5.85;;;34.00;99.90;;;;;;5049395;28;20468;-61
2023/06/20 11:41:35;;;;;;;7.45;6.03;;;34.10;99.90;;;;;;5053548;28;20068;-61
2023/06/20 11:44:03;;;;;;;7.25;5.45;;;34.20;99.90;;;;;;5052683;28;20382;-61
2023/06/20 11:46:29;;;;;;;6.75;6.18;;;34.20;99.90;;;;;;5057108;28;20052;-61
2023/06/20 11:48:56;;;;;;;6.68;5.80;;;34.70;99.90;;;;;;5056079;28;20052;-61
2023/06/20 11:51:26;;;;;;;6.53;5.93;;;34.80;99.90;;;;;;5056213;28;20021;-61
2023/06/20 11:54:01;;;;;;;6.18;5.63;;;34.30;99.90;;;;;;5051022;28;20394;-61
2023/06/20 11:56:27;;;;;;;6.18;5.68;;;34.00;99.90;;;;;;5053755;28;20047;-61
2023/06/20 11:58:53;;;;;;;6.65;5.95;;;34.40;99.90;;;;;;5052827;28;20569;-61
2023/06/20 12:01:22;;;;;;;5.97;5.45;;;34.50;99.90;;;;;;5053885;28;20033;-61
2023/06/20 12:04:06;;;;;;;9.43;5.70;;;34.40;99.90;;;;;;5049689;28;20582;-61
2023/06/20 12:06:36;;;;;;;7.97;5.78;;;34.50;99.90;;;;;;5055571;28;20100;-61
2023/06/20 12:09:27;;;;;;;5.65;5.15;;;34.20;99.90;;;;;;5048950;28;20017;-61
2023/06/20 12:11:55;;;;;;;6.07;5.50;;;33.50;99.90;;;;;;5055572;28;20078;-61
2023/06/20 12:14:23;;;;;;;8.45;5.55;;;34.00;99.90;;;;;;5055669;28;20082;-62
2023/06/20 12:16:49;;;;;;;6.93;6.32;;;33.80;99.90;;;;;;5049195;28;20032;-61
2023/06/20 12:19:31;;;;;;;7.82;5.65;;;33.60;99.90;;;;;;5053336;28;20032;-62
2023/06/20 12:21:57;;;;;;;9.02;5.43;;;34.00;99.90;;;;;;5036667;28;20486;-62
2023/06/20 12:24:27;;;;;;;5.97;5.38;;;34.30;99.90;;;;;;5056392;28;20044;-61
2023/06/20 12:26:53;;;;;;;5.88;5.10;;;34.70;99.90;;;;;;5050476;28;20040;-61
2023/06/20 12:29:20;;;;;;;6.03;5.45;;;34.60;99.90;;;;;;5048003;28;20034;-60
2023/06/20 12:31:45;;;;;;;6.55;5.90;;;34.60;99.90;;;;;;5052627;28;20025;-61
2023/06/20 12:34:11;;;;;;;5.97;5.43;;;34.50;99.90;;;;;;5056441;28;20033;-61
2023/06/20 12:36:37;;;;;;;6.45;5.40;;;34.60;99.90;;;;;;5052624;28;20033;-61
2023/06/20 12:39:03;;;;;;;6.50;6.00;;;34.50;99.90;;;;;;5055542;28;20024;-61
2023/06/20 12:41:33;;;;;;;6.35;5.55;;;34.10;99.90;;;;;;5047585;28;20379;-62
2023/06/20 12:43:59;;;;;;;6.78;5.38;;;34.00;99.90;;;;;;5038491;28;20029;-61
2023/06/20 12:46:28;;;;;;;6.13;5.50;;;33.70;99.90;;;;;;5056131;28;20025;-61
2023/06/20 12:48:54;;;;;;;6.20;5.70;;;33.50;99.90;;;;;;5054981;28;20032;-61
2023/06/20 12:51:20;;;;;;;5.53;5.03;;;33.70;99.90;;;;;;5053467;28;20035;-62
2023/06/20 12:53:49;;;;;;;5.93;5.30;;;33.50;99.90;;;;;;5053323;28;20028;-62
2023/06/20 12:56:15;;;;;;;6.30;5.43;;;33.60;99.90;;;;;;5042260;28;20138;-61